Time;durP1;ratioP1;P1;durP2;ratioP2;P2;SDS_P1;SDS_P2;PMS_P1;PMS_P2;Temp;Humidity;BMP_temperature;BMP_pressure;BME280_temperature;BME280_humidity;BME280_pressure;Samples;Min_cycle;Max_cycle;Signal;HPM_P1;HPM_P2
2023/02/02 00:01:33;;;;;;;11.63;8.03;;;4.30;99.90;;;;;;5036279;28;20468;-66
2023/02/02 00:04:03;;;;;;;13.67;9.77;;;4.40;99.90;;;;;;5050665;28;20469;-68
2023/02/02 00:06:32;;;;;;;15.70;10.47;;;4.50;99.90;;;;;;5047907;28;20922;-67
2023/02/02 00:09:01;;;;;;;14.67;10.50;;;4.60;99.90;;;;;;5035628;28;20985;-68
2023/02/02 00:11:29;;;;;;;15.60;9.80;;;4.60;99.90;;;;;;5036703;28;20447;-68
2023/02/02 00:13:56;;;;;;;12.37;9.50;;;4.60;99.90;;;;;;5036340;28;20498;-67
2023/02/02 00:16:38;;;;;;;16.57;11.33;;;4.70;99.90;;;;;;5036781;28;20566;-67
2023/02/02 00:19:07;;;;;;;14.33;10.87;;;4.80;99.90;;;;;;5036252;28;20471;-67
2023/02/02 00:21:37;;;;;;;16.03;10.80;;;4.90;99.90;;;;;;5036802;28;20467;-67
2023/02/02 00:24:04;;;;;;;17.00;10.17;;;5.10;99.90;;;;;;5036254;28;20891;-64
2023/02/02 00:26:32;;;;;;;17.50;8.67;;;5.30;99.90;;;;;;5036780;28;20463;-65
2023/02/02 00:28:59;;;;;;;17.67;8.20;;;5.30;99.90;;;;;;5037009;28;20459;-66
2023/02/02 00:31:26;;;;;;;15.53;8.53;;;5.30;99.90;;;;;;5036655;28;20438;-65
2023/02/02 00:33:53;;;;;;;18.27;9.43;;;5.30;99.90;;;;;;5036180;28;20491;-67
2023/02/02 00:36:21;;;;;;;15.20;7.90;;;5.40;99.90;;;;;;5037375;28;20519;-66
2023/02/02 00:38:51;;;;;;;18.20;8.70;;;5.40;99.90;;;;;;5056260;28;20474;-68
2023/02/02 00:41:19;;;;;;;18.03;9.27;;;5.40;99.90;;;;;;5056311;28;20466;-69
2023/02/02 00:45:14;;;;;;;20.70;9.40;;;5.40;99.90;;;;;;5042304;28;20460;-67
2023/02/02 00:46:32;;;;;;;18.00;9.67;;;5.40;99.90;;;;;;5035993;28;20457;-66
2023/02/02 00:48:59;;;;;;;19.50;9.70;;;5.50;99.90;;;;;;5035624;28;20455;-67
2023/02/02 00:51:27;;;;;;;15.63;10.50;;;5.40;99.90;;;;;;5035209;28;20474;-66
2023/02/02 00:53:55;;;;;;;15.13;9.30;;;5.50;99.90;;;;;;5036072;28;20474;-67
2023/02/02 00:56:22;;;;;;;16.33;8.37;;;5.40;99.90;;;;;;5035370;28;20494;-65
2023/02/02 00:58:49;;;;;;;16.50;8.93;;;5.40;99.90;;;;;;5036815;28;20471;-66
2023/02/02 01:01:17;;;;;;;10.53;7.07;;;5.30;99.90;;;;;;5035828;28;20460;-67
2023/02/02 01:03:44;;;;;;;10.73;6.00;;;5.30;99.90;;;;;;5035792;28;20444;-67
2023/02/02 01:06:12;;;;;;;9.20;6.53;;;5.30;99.90;;;;;;5036306;28;20876;-68
2023/02/02 01:08:39;;;;;;;9.50;5.50;;;5.30;99.90;;;;;;5036152;28;20464;-67
2023/02/02 01:11:07;;;;;;;10.60;7.47;;;5.30;99.90;;;;;;5035533;28;20473;-67
2023/02/02 01:13:36;;;;;;;14.70;9.40;;;5.30;99.90;;;;;;5035975;28;20517;-68
2023/02/02 01:16:04;;;;;;;13.40;9.13;;;5.40;99.90;;;;;;5035901;28;20463;-67
2023/02/02 01:18:31;;;;;;;10.33;7.53;;;5.40;99.90;;;;;;5036199;28;20756;-65
2023/02/02 01:20:59;;;;;;;12.37;7.90;;;5.40;99.90;;;;;;5036116;28;20745;-65
2023/02/02 01:23:27;;;;;;;11.40;7.50;;;5.40;99.90;;;;;;5035855;28;20525;-64
2023/02/02 01:25:55;;;;;;;11.60;7.97;;;5.30;99.90;;;;;;5035954;28;20898;-65
2023/02/02 01:28:24;;;;;;;14.83;9.03;;;5.40;99.90;;;;;;5035899;28;20463;-66
2023/02/02 01:30:52;;;;;;;14.00;9.30;;;5.40;99.90;;;;;;5035819;28;20936;-65
2023/02/02 01:33:19;;;;;;;14.70;8.80;;;5.50;99.90;;;;;;5035618;28;20517;-65
2023/02/02 01:35:47;;;;;;;10.97;8.27;;;5.50;99.90;;;;;;5035291;28;20463;-66
2023/02/02 01:38:14;;;;;;;12.97;7.90;;;5.50;99.90;;;;;;5035378;28;20471;-66
2023/02/02 01:40:46;;;;;;;9.17;6.63;;;5.50;99.90;;;;;;5035516;28;20463;-69
2023/02/02 01:43:24;;;;;;;9.97;6.50;;;5.60;99.90;;;;;;5035075;28;20459;-67
2023/02/02 01:45:52;;;;;;;14.30;6.60;;;5.60;99.90;;;;;;5035248;28;20463;-66
2023/02/02 01:48:22;;;;;;;11.93;7.03;;;5.60;99.90;;;;;;5034822;28;20464;-67
2023/02/02 01:50:53;;;;;;;13.77;7.40;;;5.60;99.90;;;;;;5034638;28;20468;-67
2023/02/02 01:53:21;;;;;;;11.97;7.20;;;5.70;99.90;;;;;;5034859;28;20499;-67
2023/02/02 01:55:49;;;;;;;13.40;8.57;;;5.70;99.90;;;;;;5035056;28;20491;-67
2023/02/02 01:58:19;;;;;;;12.87;7.87;;;5.80;99.90;;;;;;5035170;28;20459;-67
2023/02/02 02:00:48;;;;;;;19.17;10.37;;;5.80;99.90;;;;;;5035450;28;20467;-67
2023/02/02 02:03:18;;;;;;;24.03;11.90;;;5.80;99.90;;;;;;5034633;28;20459;-67
2023/02/02 02:05:49;;;;;;;16.80;12.57;;;5.80;99.90;;;;;;5035088;28;20442;-67
2023/02/02 02:08:24;;;;;;;26.07;14.50;;;5.90;99.90;;;;;;5035030;28;20463;-67
2023/02/02 02:10:51;;;;;;;23.27;15.60;;;5.90;99.90;;;;;;5035109;28;20931;-67
2023/02/02 02:13:21;;;;;;;22.73;17.07;;;5.90;99.90;;;;;;5034498;28;20480;-67
2023/02/02 02:18:50;;;;;;;35.37;19.47;;;5.90;99.90;;;;;;5034148;28;20516;-66
2023/02/02 02:28:23;;;;;;;23.90;17.67;;;6.00;99.90;;;;;;5021367;28;20895;-68
2023/02/02 02:31:29;;;;;;;24.17;14.13;;;6.10;99.90;;;;;;5035188;28;20455;-66
2023/02/02 02:34:03;;;;;;;28.30;16.57;;;6.10;99.90;;;;;;5033954;28;20489;-67
2023/02/02 02:36:35;;;;;;;25.90;16.10;;;6.10;99.90;;;;;;5034260;28;20525;-68
2023/02/02 02:39:09;;;;;;;24.23;14.83;;;6.10;99.90;;;;;;5034212;28;20469;-68
2023/02/02 02:41:43;;;;;;;23.33;12.57;;;6.10;99.90;;;;;;5034803;28;20463;-68
2023/02/02 02:44:14;;;;;;;27.97;14.57;;;6.10;99.90;;;;;;5034551;28;20470;-66
2023/02/02 02:46:41;;;;;;;19.07;13.37;;;6.00;99.90;;;;;;5034544;28;20470;-66
2023/02/02 02:49:12;;;;;;;21.40;13.47;;;6.00;99.90;;;;;;5032847;28;20438;-66
2023/02/02 02:51:46;;;;;;;26.47;13.00;;;6.10;99.90;;;;;;5032643;28;20468;-66
2023/02/02 02:54:16;;;;;;;17.70;12.20;;;6.10;99.90;;;;;;5034192;28;20493;-66
2023/02/02 02:57:05;;;;;;;28.60;13.80;;;6.00;99.90;;;;;;5034458;28;20463;-65
2023/02/02 02:59:44;;;;;;;19.77;12.80;;;6.10;99.90;;;;;;5033187;28;20844;-65
2023/02/02 03:02:27;;;;;;;25.47;13.80;;;6.00;99.90;;;;;;5034040;28;20437;-65
2023/02/02 03:05:07;;;;;;;19.60;11.77;;;6.10;99.90;;;;;;5033955;28;20746;-65
2023/02/02 03:07:41;;;;;;;23.00;13.87;;;6.00;99.90;;;;;;5033884;28;20434;-66
2023/02/02 03:10:11;;;;;;;17.20;13.37;;;6.10;99.90;;;;;;5033730;28;20766;-66
2023/02/02 03:12:44;;;;;;;18.80;11.17;;;6.10;99.90;;;;;;5034059;28;20526;-66
2023/02/02 03:15:13;;;;;;;26.03;12.40;;;6.10;99.90;;;;;;5033601;28;20495;-66
2023/02/02 03:17:41;;;;;;;15.50;9.73;;;6.10;99.90;;;;;;5034388;28;20487;-65
2023/02/02 03:20:11;;;;;;;15.33;9.80;;;6.10;99.90;;;;;;5036444;28;20463;-66
2023/02/02 03:22:38;;;;;;;13.33;8.40;;;6.10;99.90;;;;;;5037522;28;20463;-65
2023/02/02 03:25:06;;;;;;;15.93;7.87;;;6.10;99.90;;;;;;5037902;28;20430;-66
2023/02/02 03:27:34;;;;;;;11.57;7.30;;;6.10;99.90;;;;;;5037431;28;20888;-66
2023/02/02 03:30:01;;;;;;;13.33;7.60;;;6.10;99.90;;;;;;5037798;28;20463;-67
2023/02/02 03:32:28;;;;;;;12.60;8.50;;;6.10;99.90;;;;;;5036822;28;20467;-67
2023/02/02 03:34:55;;;;;;;15.43;8.83;;;6.20;99.90;;;;;;5037666;28;20477;-67
2023/02/02 03:37:23;;;;;;;14.13;8.60;;;6.10;99.90;;;;;;5036551;28;20470;-68
2023/02/02 03:39:50;;;;;;;21.20;9.20;;;6.20;99.90;;;;;;5037267;28;20887;-67
2023/02/02 03:42:18;;;;;;;23.53;10.90;;;6.20;99.90;;;;;;5036987;28;20745;-67
2023/02/02 03:44:45;;;;;;;18.63;9.90;;;6.20;99.90;;;;;;5036820;28;20550;-68
2023/02/02 03:47:12;;;;;;;18.27;10.20;;;6.20;99.90;;;;;;5036794;28;20463;-67
2023/02/02 03:49:39;;;;;;;15.97;9.13;;;6.20;99.90;;;;;;5036161;28;20478;-68
2023/02/02 03:52:06;;;;;;;21.40;9.40;;;6.20;99.90;;;;;;5036364;28;20464;-68
2023/02/02 03:54:35;;;;;;;17.60;9.33;;;6.20;99.90;;;;;;5036860;28;20494;-67
2023/02/02 03:57:02;;;;;;;16.40;9.47;;;6.20;99.90;;;;;;5036864;28;20880;-67
2023/02/02 03:59:29;;;;;;;18.33;8.93;;;6.10;99.90;;;;;;5036680;28;20455;-67
2023/02/02 04:01:56;;;;;;;24.90;10.50;;;6.20;99.90;;;;;;5036741;28;20465;-67
2023/02/02 04:04:24;;;;;;;23.07;9.20;;;6.20;99.90;;;;;;5036432;28;20466;-68
2023/02/02 04:06:51;;;;;;;18.90;10.27;;;6.20;99.90;;;;;;5036654;28;20462;-68
2023/02/02 04:09:39;;;;;;;21.90;10.07;;;6.10;99.90;;;;;;5036451;28;20466;-67
2023/02/02 04:12:06;;;;;;;26.87;10.90;;;6.10;99.90;;;;;;5036759;28;20460;-68
2023/02/02 04:14:33;;;;;;;18.50;10.70;;;6.20;99.90;;;;;;5035966;28;20487;-68
2023/02/02 04:17:01;;;;;;;23.20;10.27;;;6.20;99.90;;;;;;5036116;28;20887;-67
2023/02/02 04:19:28;;;;;;;20.37;10.87;;;6.20;99.90;;;;;;5036631;28;20474;-68
2023/02/02 04:21:55;;;;;;;26.30;10.40;;;6.20;99.90;;;;;;5036822;28;20478;-68
2023/02/02 04:24:22;;;;;;;21.50;10.60;;;6.20;99.90;;;;;;5036238;28;20459;-68
2023/02/02 04:26:50;;;;;;;27.80;11.73;;;6.20;99.90;;;;;;5036703;28;20463;-66
2023/02/02 04:29:17;;;;;;;26.83;12.50;;;6.20;99.90;;;;;;5035028;28;20470;-66
2023/02/02 04:31:45;;;;;;;26.00;12.03;;;6.20;99.90;;;;;;5035726;28;20470;-66
2023/02/02 04:34:12;;;;;;;24.33;10.77;;;6.20;99.90;;;;;;5035660;28;20490;-67
2023/02/02 04:36:39;;;;;;;20.40;11.57;;;6.20;99.90;;;;;;5036128;28;20463;-66
2023/02/02 04:39:06;;;;;;;18.60;10.73;;;6.20;99.90;;;;;;5035767;28;20437;-66
2023/02/02 04:41:33;;;;;;;19.77;10.73;;;6.20;99.90;;;;;;5036270;28;20871;-67
2023/02/02 04:44:02;;;;;;;25.80;10.50;;;6.20;99.90;;;;;;5036459;28;20562;-67
2023/02/02 04:46:30;;;;;;;25.27;11.20;;;6.20;99.90;;;;;;5035511;28;20459;-68
2023/02/02 04:48:58;;;;;;;20.50;10.20;;;6.20;99.90;;;;;;5036318;28;20463;-68
2023/02/02 04:51:25;;;;;;;29.73;11.60;;;6.20;99.90;;;;;;5034903;28;20479;-68
2023/02/02 04:53:52;;;;;;;19.70;10.03;;;6.20;99.90;;;;;;5036374;28;20474;-67
2023/02/02 04:56:19;;;;;;;29.40;11.27;;;6.20;99.90;;;;;;5035223;28;20491;-64
2023/02/02 04:58:47;;;;;;;24.03;9.77;;;6.20;99.90;;;;;;5036125;28;20455;-67
2023/02/02 05:01:18;;;;;;;21.50;10.53;;;6.20;99.90;;;;;;5035798;28;20446;-66
2023/02/02 05:03:46;;;;;;;26.73;11.03;;;6.20;99.90;;;;;;5036102;28;20463;-66
2023/02/02 05:06:14;;;;;;;20.80;10.33;;;6.20;99.90;;;;;;5035375;28;20782;-67
2023/02/02 05:08:42;;;;;;;25.97;10.70;;;6.20;99.90;;;;;;5035848;28;20556;-68
2023/02/02 05:11:10;;;;;;;26.63;12.23;;;6.20;99.90;;;;;;5035774;28;20467;-69
2023/02/02 05:13:37;;;;;;;25.23;10.23;;;6.20;99.90;;;;;;5035281;28;20463;-67
2023/02/02 05:16:05;;;;;;;23.10;9.70;;;6.20;99.90;;;;;;5035182;28;20510;-66
2023/02/02 05:18:34;;;;;;;21.97;9.27;;;6.20;99.90;;;;;;5036221;28;20750;-65
2023/02/02 05:21:01;;;;;;;23.20;11.03;;;6.10;99.90;;;;;;5035330;28;20887;-67
2023/02/02 05:23:29;;;;;;;23.23;10.30;;;6.10;99.90;;;;;;5035702;28;20470;-66
2023/02/02 05:25:57;;;;;;;23.10;11.27;;;6.20;99.90;;;;;;5035821;28;20460;-67
2023/02/02 05:28:24;;;;;;;22.07;10.50;;;6.20;99.90;;;;;;5035157;28;20572;-66
2023/02/02 05:30:51;;;;;;;21.97;10.50;;;6.10;99.90;;;;;;5035491;28;20467;-66
2023/02/02 05:33:19;;;;;;;29.50;11.50;;;6.20;99.90;;;;;;5035179;28;20467;-65
2023/02/02 05:35:48;;;;;;;18.33;10.03;;;6.10;99.90;;;;;;5035267;28;20499;-65
2023/02/02 05:38:16;;;;;;;26.63;10.20;;;6.20;99.90;;;;;;5034246;28;20473;-67
2023/02/02 05:40:44;;;;;;;31.83;11.00;;;6.20;99.90;;;;;;5034519;28;20485;-67
2023/02/02 05:43:11;;;;;;;23.60;10.97;;;6.20;99.90;;;;;;5035336;28;20463;-66
2023/02/02 05:45:38;;;;;;;22.17;10.43;;;6.20;99.90;;;;;;5035081;28;20434;-66
2023/02/02 05:48:06;;;;;;;22.77;10.07;;;6.20;99.90;;;;;;5034758;28;20744;-66
2023/02/02 05:50:33;;;;;;;25.17;10.80;;;6.30;99.90;;;;;;5034604;28;20977;-66
2023/02/02 05:53:02;;;;;;;20.70;9.90;;;6.20;99.90;;;;;;5034511;28;20490;-66
2023/02/02 05:55:29;;;;;;;22.57;10.63;;;6.20;99.90;;;;;;5034975;28;20503;-66
2023/02/02 05:57:56;;;;;;;17.40;9.60;;;6.20;99.90;;;;;;5034597;28;20430;-67
2023/02/02 06:00:24;;;;;;;33.77;10.50;;;6.20;99.90;;;;;;5033978;28;20906;-68
2023/02/02 06:02:51;;;;;;;19.07;9.23;;;6.20;99.90;;;;;;5032860;28;20550;-67
2023/02/02 06:05:18;;;;;;;27.77;11.13;;;6.20;99.90;;;;;;5033039;28;20459;-66
2023/02/02 06:07:45;;;;;;;26.17;11.33;;;6.30;99.90;;;;;;5033623;28;20767;-66
2023/02/02 06:10:13;;;;;;;19.90;10.83;;;6.30;99.90;;;;;;5032993;28;20470;-67
2023/02/02 06:12:41;;;;;;;21.80;10.23;;;6.20;99.90;;;;;;5033374;28;20557;-68
2023/02/02 06:15:09;;;;;;;20.27;11.20;;;6.30;99.90;;;;;;5033184;28;20491;-68
2023/02/02 06:17:36;;;;;;;18.27;10.43;;;6.30;99.90;;;;;;5033178;28;20455;-68
2023/02/02 06:20:04;;;;;;;23.97;11.17;;;6.30;99.90;;;;;;5032206;28;20463;-66
2023/02/02 06:22:32;;;;;;;26.57;11.63;;;6.30;99.90;;;;;;5032805;28;20464;-67
2023/02/02 06:24:59;;;;;;;24.43;9.83;;;6.30;99.90;;;;;;5031305;28;20434;-67
2023/02/02 06:27:28;;;;;;;22.77;11.20;;;6.30;99.90;;;;;;5031686;28;20460;-68
2023/02/02 06:29:55;;;;;;;17.93;10.03;;;6.30;99.90;;;;;;5031121;28;21038;-68
2023/02/02 06:32:22;;;;;;;26.33;11.40;;;6.30;99.90;;;;;;5027729;28;20892;-66
2023/02/02 06:34:50;;;;;;;23.43;12.17;;;6.40;99.90;;;;;;5032519;28;20791;-67
2023/02/02 06:37:17;;;;;;;26.63;12.30;;;6.30;99.90;;;;;;5034833;27;20892;-66
2023/02/02 06:39:44;;;;;;;22.20;11.10;;;6.40;99.90;;;;;;5030286;28;20469;-67
2023/02/02 06:42:11;;;;;;;21.97;13.40;;;6.40;99.90;;;;;;5029897;28;20434;-68
2023/02/02 06:44:39;;;;;;;18.87;11.30;;;6.30;99.90;;;;;;5031045;28;20482;-68
2023/02/02 06:47:07;;;;;;;30.20;12.60;;;6.30;99.90;;;;;;5030920;28;20463;-67
2023/02/02 06:49:34;;;;;;;25.80;12.73;;;6.30;99.90;;;;;;5030364;28;20456;-67
2023/02/02 06:52:01;;;;;;;30.40;12.17;;;6.30;99.90;;;;;;5030169;28;20459;-67
2023/02/02 06:54:28;;;;;;;25.90;12.90;;;6.20;99.90;;;;;;5030993;28;20781;-66
2023/02/02 06:56:56;;;;;;;30.40;12.73;;;6.30;99.90;;;;;;5033750;28;20459;-66
2023/02/02 06:59:23;;;;;;;28.97;12.17;;;6.30;99.90;;;;;;5032952;28;20446;-67
2023/02/02 07:01:52;;;;;;;31.30;13.67;;;6.30;99.90;;;;;;5031862;28;20466;-67
2023/02/02 07:04:19;;;;;;;30.23;12.00;;;6.30;99.90;;;;;;5032254;28;20462;-67
2023/02/02 07:06:46;;;;;;;26.10;13.63;;;6.30;99.90;;;;;;5033076;28;20470;-67
2023/02/02 07:09:13;;;;;;;26.60;13.10;;;6.30;99.90;;;;;;5032384;28;20464;-67
2023/02/02 07:11:40;;;;;;;23.93;14.10;;;6.30;99.90;;;;;;5032343;28;20467;-67
2023/02/02 07:14:08;;;;;;;21.47;13.10;;;6.30;99.90;;;;;;5033464;28;20467;-65
2023/02/02 07:16:35;;;;;;;27.23;14.00;;;6.30;99.90;;;;;;5033721;28;20553;-66
2023/02/02 07:19:04;;;;;;;33.30;15.37;;;6.30;99.90;;;;;;5033868;28;20445;-65
2023/02/02 07:21:34;;;;;;;26.23;16.23;;;6.30;99.90;;;;;;5036317;28;20697;-66
2023/02/02 07:24:02;;;;;;;23.30;13.00;;;6.30;99.90;;;;;;5033913;28;20887;-67
2023/02/02 07:26:29;;;;;;;32.27;14.70;;;6.30;99.90;;;;;;5032464;28;20463;-67
2023/02/02 07:28:56;;;;;;;30.20;15.53;;;6.30;99.90;;;;;;5034250;28;20894;-67
2023/02/02 07:31:25;;;;;;;32.83;16.67;;;6.30;99.90;;;;;;5033578;28;20448;-67
2023/02/02 07:33:52;;;;;;;30.07;14.70;;;6.30;99.90;;;;;;5032845;28;20471;-68
2023/02/02 07:36:23;;;;;;;28.80;16.17;;;6.30;99.90;;;;;;5033794;28;20495;-67
2023/02/02 07:38:53;;;;;;;32.13;16.90;;;6.30;99.90;;;;;;5034126;28;20450;-67
2023/02/02 07:41:21;;;;;;;27.73;16.30;;;6.30;99.90;;;;;;5032875;28;20599;-67
2023/02/02 07:43:49;;;;;;;27.80;15.47;;;6.30;99.90;;;;;;5031398;28;20463;-66
2023/02/02 07:46:17;;;;;;;23.87;16.00;;;6.30;99.90;;;;;;5032402;28;20755;-67
2023/02/02 07:48:44;;;;;;;30.40;15.20;;;6.30;99.90;;;;;;5031780;28;20464;-66
2023/02/02 07:51:15;;;;;;;27.23;17.10;;;6.30;99.90;;;;;;5030562;28;20484;-66
2023/02/02 07:53:45;;;;;;;25.27;15.03;;;6.30;99.90;;;;;;5030892;28;20463;-66
2023/02/02 07:56:14;;;;;;;24.87;16.00;;;6.30;99.90;;;;;;5031689;28;20499;-67
2023/02/02 07:58:42;;;;;;;35.57;17.13;;;6.40;99.90;;;;;;5033445;28;20478;-66
2023/02/02 08:01:11;;;;;;;28.40;15.40;;;6.30;99.90;;;;;;5032839;28;20459;-67
2023/02/02 08:03:39;;;;;;;31.30;16.00;;;6.40;99.90;;;;;;5033143;28;20460;-66
2023/02/02 08:06:11;;;;;;;29.73;17.40;;;6.30;99.90;;;;;;5023971;28;20471;-66
2023/02/02 08:08:38;;;;;;;28.50;16.10;;;6.40;99.90;;;;;;5026832;28;20475;-67
2023/02/02 08:11:09;;;;;;;28.40;16.70;;;6.40;99.90;;;;;;5036076;28;20508;-66
2023/02/02 08:13:36;;;;;;;35.03;15.80;;;6.30;99.90;;;;;;5036622;28;20463;-67
2023/02/02 08:16:04;;;;;;;22.77;14.20;;;6.40;99.90;;;;;;5035752;28;20453;-67
2023/02/02 08:18:31;;;;;;;21.30;15.43;;;6.30;99.90;;;;;;5036773;28;20463;-67
2023/02/02 08:20:59;;;;;;;20.33;15.00;;;6.40;99.90;;;;;;5035610;28;20464;-67
2023/02/02 08:23:26;;;;;;;21.07;14.60;;;6.40;99.90;;;;;;5035101;28;20760;-66
2023/02/02 08:25:54;;;;;;;27.83;14.80;;;6.40;99.90;;;;;;5034432;28;20591;-67
2023/02/02 08:28:23;;;;;;;25.30;14.23;;;6.40;99.90;;;;;;5034914;28;20474;-66
2023/02/02 08:30:50;;;;;;;23.60;14.07;;;6.40;99.90;;;;;;5035326;28;20438;-67
2023/02/02 08:33:17;;;;;;;20.63;13.80;;;6.40;99.90;;;;;;5034509;28;20459;-67
2023/02/02 08:35:46;;;;;;;20.13;14.50;;;6.40;99.90;;;;;;5035331;28;20927;-66
2023/02/02 08:38:13;;;;;;;31.27;13.97;;;6.30;99.90;;;;;;5035594;28;20474;-67
2023/02/02 08:40:40;;;;;;;20.27;14.87;;;6.30;99.90;;;;;;5036793;28;20467;-66
2023/02/02 08:43:07;;;;;;;26.60;14.63;;;6.40;99.90;;;;;;5036039;28;20459;-66
2023/02/02 08:45:36;;;;;;;20.30;13.83;;;6.40;99.90;;;;;;5036334;28;20554;-67
2023/02/02 08:48:03;;;;;;;24.43;13.73;;;6.40;99.90;;;;;;5035183;28;20467;-66
2023/02/02 08:50:30;;;;;;;22.40;13.10;;;6.40;99.90;;;;;;5035488;28;20468;-67
2023/02/02 08:52:58;;;;;;;23.43;14.93;;;6.40;99.90;;;;;;5036345;28;20459;-66
2023/02/02 08:55:25;;;;;;;28.50;16.10;;;6.40;99.90;;;;;;5036216;28;20502;-67
2023/02/02 08:57:52;;;;;;;23.47;14.37;;;6.40;99.90;;;;;;5035655;28;20904;-66
2023/02/02 09:00:20;;;;;;;45.33;27.20;;;6.50;99.90;;;;;;5036697;28;20727;-66
2023/02/02 09:02:52;;;;;;;43.17;27.80;;;6.40;99.90;;;;;;5036060;28;20470;-66
2023/02/02 09:05:19;;;;;;;23.90;17.17;;;6.40;99.90;;;;;;5036000;28;20559;-67
2023/02/02 09:07:48;;;;;;;22.30;17.97;;;6.50;99.90;;;;;;5035807;28;20463;-66
2023/02/02 09:10:15;;;;;;;17.60;14.23;;;6.50;99.90;;;;;;5035524;28;20903;-66
2023/02/02 09:12:43;;;;;;;17.70;13.80;;;6.50;99.90;;;;;;5035994;28;20906;-66
2023/02/02 09:15:10;;;;;;;15.53;11.57;;;6.50;99.90;;;;;;5035374;28;20537;-67
2023/02/02 09:17:38;;;;;;;15.70;12.90;;;6.40;99.90;;;;;;5033930;28;20511;-66
2023/02/02 09:20:07;;;;;;;15.13;11.33;;;6.50;99.90;;;;;;5033543;28;20455;-67
2023/02/02 09:22:35;;;;;;;15.20;10.50;;;6.50;99.90;;;;;;5032290;28;20520;-67
2023/02/02 09:25:02;;;;;;;16.17;10.13;;;6.50;99.90;;;;;;5014856;28;20551;-67
2023/02/02 09:27:29;;;;;;;18.60;10.17;;;6.40;99.90;;;;;;5029908;28;20463;-66
2023/02/02 09:29:56;;;;;;;14.33;9.87;;;6.50;99.90;;;;;;5031997;28;20452;-67
2023/02/02 09:32:23;;;;;;;14.33;11.10;;;6.50;99.90;;;;;;5032673;28;20501;-67
2023/02/02 09:34:51;;;;;;;11.43;9.90;;;6.50;99.90;;;;;;5033037;28;20978;-67
2023/02/02 09:37:19;;;;;;;14.57;11.70;;;6.50;99.90;;;;;;5032041;28;20900;-67
2023/02/02 09:39:46;;;;;;;16.00;11.67;;;6.50;99.90;;;;;;5033495;28;20529;-67
2023/02/02 09:42:32;;;;;;;14.13;11.40;;;6.60;99.90;;;;;;5034374;28;20463;-67
2023/02/02 09:45:04;;;;;;;17.30;13.00;;;6.60;99.90;;;;;;5035370;28;20455;-66
2023/02/02 09:47:47;;;;;;;17.50;11.00;;;6.60;99.90;;;;;;5035162;28;20459;-66
2023/02/02 09:50:20;;;;;;;17.07;10.90;;;6.60;99.90;;;;;;5034796;28;20951;-66
2023/02/02 09:52:55;;;;;;;14.47;11.20;;;6.60;99.90;;;;;;5093195;27;20542;-66
2023/02/02 09:55:30;;;;;;;15.97;10.70;;;6.60;99.90;;;;;;5033108;28;20752;-66
2023/02/02 09:58:05;;;;;;;15.07;11.50;;;6.60;99.90;;;;;;5033976;28;20501;-66
2023/02/02 10:00:34;;;;;;;14.83;10.40;;;6.70;99.90;;;;;;5034148;28;20752;-67
2023/02/02 10:03:04;;;;;;;12.63;10.30;;;6.60;99.90;;;;;;5032789;28;20972;-67
2023/02/02 10:05:42;;;;;;;17.27;13.43;;;6.60;99.90;;;;;;5033532;28;20469;-67
2023/02/02 10:08:17;;;;;;;13.50;10.83;;;6.70;99.90;;;;;;5034085;28;20459;-67
2023/02/02 10:10:47;;;;;;;16.03;12.50;;;6.60;99.90;;;;;;5035143;28;20459;-67
2023/02/02 10:13:17;;;;;;;17.00;12.70;;;6.60;99.90;;;;;;5034030;28;20459;-67
2023/02/02 10:15:52;;;;;;;20.37;13.47;;;6.60;99.90;;;;;;5033157;28;20578;-67
2023/02/02 10:18:23;;;;;;;21.67;14.33;;;6.60;99.90;;;;;;5033144;28;20574;-67
2023/02/02 10:20:56;;;;;;;22.70;16.87;;;6.70;99.90;;;;;;5033647;28;20459;-67
2023/02/02 10:23:27;;;;;;;23.20;16.77;;;6.60;99.90;;;;;;5032462;28;20459;-68
2023/02/02 10:25:57;;;;;;;37.63;18.37;;;6.60;99.90;;;;;;5032568;28;20463;-68
2023/02/02 10:28:45;;;;;;;27.73;18.53;;;6.60;99.90;;;;;;5032239;28;20463;-68
2023/02/02 10:31:22;;;;;;;23.97;16.80;;;6.60;99.90;;;;;;5034348;28;20558;-68
2023/02/02 10:34:02;;;;;;;27.13;18.23;;;6.60;99.90;;;;;;5034127;28;20467;-68
2023/02/02 10:36:37;;;;;;;36.43;19.93;;;6.60;99.90;;;;;;5034141;28;20491;-67
2023/02/02 10:39:14;;;;;;;32.83;21.33;;;6.60;99.90;;;;;;5034234;28;20463;-68
2023/02/02 10:41:48;;;;;;;33.03;20.27;;;6.60;99.90;;;;;;5034623;28;20492;-66
2023/02/02 10:44:24;;;;;;;35.97;23.60;;;6.60;99.90;;;;;;5034789;28;20463;-64
2023/02/02 10:46:54;;;;;;;39.87;23.00;;;6.60;99.90;;;;;;5031575;28;20561;-66
2023/02/02 10:49:29;;;;;;;37.33;24.93;;;6.60;99.90;;;;;;5027077;28;20543;-65
2023/02/02 10:52:02;;;;;;;43.63;26.00;;;6.60;99.90;;;;;;5033676;28;20570;-65
2023/02/02 10:54:47;;;;;;;40.27;25.57;;;6.60;99.90;;;;;;5034476;28;20487;-65
2023/02/02 10:57:20;;;;;;;31.80;24.33;;;6.70;99.90;;;;;;5037029;28;20888;-65
2023/02/02 10:59:58;;;;;;;39.13;22.90;;;6.70;99.90;;;;;;5033921;28;20558;-66
2023/02/02 11:02:25;;;;;;;34.43;23.97;;;6.70;99.90;;;;;;5034218;28;20470;-66
2023/02/02 11:07:37;;;;;;;31.00;19.70;;;6.70;99.90;;;;;;5033297;28;20445;-66
2023/02/02 11:10:06;;;;;;;33.80;18.57;;;6.70;99.90;;;;;;5033338;28;20554;-66
2023/02/02 11:12:36;;;;;;;30.50;19.63;;;6.70;99.90;;;;;;5034449;28;20818;-66
2023/02/02 11:15:06;;;;;;;34.20;26.10;;;6.70;99.90;;;;;;5033515;28;20853;-66
2023/02/02 11:17:34;;;;;;;37.93;19.83;;;6.70;99.90;;;;;;5033823;28;20866;-66
2023/02/02 11:20:02;;;;;;;32.33;18.97;;;6.80;99.90;;;;;;5033877;28;20442;-66
2023/02/02 11:22:33;;;;;;;34.47;19.00;;;6.70;99.90;;;;;;5033738;28;20996;-66
2023/02/02 11:25:03;;;;;;;21.93;14.93;;;6.70;99.90;;;;;;5034122;28;20467;-66
2023/02/02 11:27:35;;;;;;;30.70;17.17;;;6.80;99.90;;;;;;5033774;28;20880;-65
2023/02/02 11:30:21;;;;;;;23.13;16.80;;;6.80;99.90;;;;;;5018759;28;20471;-65
2023/02/02 11:32:49;;;;;;;26.57;16.60;;;6.70;99.90;;;;;;5030075;28;20970;-65
2023/02/02 11:35:20;;;;;;;27.40;21.43;;;6.80;99.90;;;;;;5031113;28;20562;-65
2023/02/02 11:38:08;;;;;;;32.17;18.70;;;6.80;99.90;;;;;;5033247;28;20487;-65
2023/02/02 11:40:37;;;;;;;26.90;15.53;;;6.80;99.90;;;;;;5036956;28;20959;-65
2023/02/02 11:43:16;;;;;;;29.97;15.07;;;6.80;99.90;;;;;;5034725;28;20550;-64
2023/02/02 11:45:48;;;;;;;25.63;13.73;;;6.90;99.90;;;;;;5037454;28;20771;-64
2023/02/02 11:48:18;;;;;;;28.27;15.10;;;6.90;99.90;;;;;;5033369;28;20490;-64
2023/02/02 11:50:48;;;;;;;25.10;15.17;;;6.90;99.90;;;;;;5036832;28;20469;-64
2023/02/02 11:53:25;;;;;;;28.90;16.60;;;6.90;99.90;;;;;;5035952;28;20463;-65
2023/02/02 11:55:53;;;;;;;25.13;14.53;;;6.90;99.90;;;;;;5035900;28;20565;-65
2023/02/02 11:58:26;;;;;;;28.00;15.10;;;6.90;99.90;;;;;;5031932;28;20467;-67
2023/02/02 12:00:56;;;;;;;25.63;14.73;;;6.90;99.90;;;;;;5035446;28;20471;-68
2023/02/02 12:03:29;;;;;;;34.10;16.13;;;6.90;99.90;;;;;;5033399;28;20463;-67
2023/02/02 12:05:57;;;;;;;29.23;19.37;;;6.90;99.90;;;;;;5035530;28;20436;-66
2023/02/02 12:08:24;;;;;;;23.13;13.03;;;6.90;99.90;;;;;;5035115;28;20463;-66
2023/02/02 12:10:59;;;;;;;20.83;12.53;;;6.80;99.90;;;;;;5030379;28;20974;-65
2023/02/02 12:13:54;;;;;;;22.17;12.13;;;6.80;99.90;;;;;;5033081;28;20455;-65
2023/02/02 12:16:32;;;;;;;17.83;12.03;;;6.80;99.90;;;;;;5028891;28;20593;-65
2023/02/02 12:19:15;;;;;;;20.93;12.53;;;6.80;99.90;;;;;;5028395;28;20554;-65
2023/02/02 12:21:51;;;;;;;24.20;12.50;;;6.90;99.90;;;;;;5030755;28;20447;-65
2023/02/02 12:24:35;;;;;;;25.03;14.73;;;6.80;99.90;;;;;;5033027;28;20465;-65
2023/02/02 12:27:22;;;;;;;22.53;13.60;;;6.90;99.90;;;;;;5028997;28;20459;-65
2023/02/02 12:30:04;;;;;;;22.77;12.37;;;6.90;99.90;;;;;;5031672;28;21171;-65
2023/02/02 12:32:45;;;;;;;28.00;14.93;;;6.80;99.90;;;;;;5015505;28;20564;-65
2023/02/02 12:35:28;;;;;;;26.07;14.30;;;6.80;99.90;;;;;;5015892;28;20533;-65
2023/02/02 12:38:04;;;;;;;27.13;13.63;;;6.80;99.90;;;;;;5021918;28;20493;-65
2023/02/02 12:40:48;;;;;;;23.77;14.03;;;6.80;99.90;;;;;;5033459;28;20463;-65
2023/02/02 12:43:26;;;;;;;27.53;14.13;;;6.70;99.90;;;;;;5033452;28;20553;-64
2023/02/02 12:46:24;;;;;;;23.83;14.87;;;6.70;99.90;;;;;;5033324;28;20768;-65
2023/02/02 12:49:12;;;;;;;20.50;13.97;;;6.80;99.90;;;;;;5031191;28;20471;-64
2023/02/02 12:52:02;;;;;;;20.53;14.10;;;6.80;99.90;;;;;;5031498;28;20448;-64
2023/02/02 12:54:51;;;;;;;29.20;19.10;;;6.70;99.90;;;;;;5032073;28;20489;-66
2023/02/02 12:57:26;;;;;;;24.17;14.93;;;6.80;99.90;;;;;;5033715;28;20489;-66
2023/02/02 13:00:36;;;;;;;20.33;15.03;;;6.80;99.90;;;;;;5038825;27;20477;-66
2023/02/02 13:03:28;;;;;;;20.90;12.07;;;6.80;99.90;;;;;;5029336;28;20463;-67
2023/02/02 13:06:06;;;;;;;31.33;13.40;;;6.90;99.90;;;;;;5028903;28;20459;-66
2023/02/02 13:08:36;;;;;;;16.90;12.40;;;6.90;99.90;;;;;;5029255;28;20499;-67